createdAt,value
2023-03-12T00:00:26.223Z,2.30
2023-03-12T00:01:22.785Z,2.10
2023-03-12T00:01:56.395Z,2.10
2023-03-12T00:02:30.310Z,2.40
2023-03-12T00:03:04.097Z,2.00
2023-03-12T00:03:40.695Z,2.20
2023-03-12T00:04:14.064Z,2.00
2023-03-12T00:04:47.480Z,2.00
2023-03-12T00:05:22.701Z,2.50
2023-03-12T00:05:56.083Z,2.40
2023-03-12T00:06:29.543Z,2.50
2023-03-12T00:07:06.769Z,2.20
2023-03-12T00:07:40.160Z,2.20
2023-03-12T00:08:15.150Z,2.20
2023-03-12T00:08:49.296Z,2.50
2023-03-12T00:09:23.776Z,2.40
2023-03-12T00:10:00.276Z,2.30
2023-03-12T00:10:34.089Z,2.70
2023-03-12T00:11:09.548Z,2.40
2023-03-12T00:11:43.199Z,2.50
2023-03-12T00:12:16.888Z,2.50
2023-03-12T00:12:50.316Z,2.60
2023-03-12T00:13:23.700Z,2.20
2023-03-12T00:14:00.352Z,2.50
2023-03-12T00:14:34.523Z,2.40
2023-03-12T00:15:08.792Z,2.50
2023-03-12T00:15:42.292Z,2.60
2023-03-12T00:16:16.284Z,2.60
2023-03-12T00:16:49.767Z,2.50
2023-03-12T00:17:23.416Z,2.50
2023-03-12T00:17:57.181Z,2.60
2023-03-12T00:18:31.018Z,2.80
2023-03-12T00:19:04.825Z,2.60
2023-03-12T00:19:38.346Z,2.50
2023-03-12T00:20:15.531Z,2.50
2023-03-12T00:20:56.625Z,2.50
2023-03-12T00:21:30.049Z,2.60
2023-03-12T00:22:03.653Z,2.50
2023-03-12T00:22:37.105Z,3.20
2023-03-12T00:23:10.703Z,2.70
2023-03-12T00:23:44.586Z,2.40
2023-03-12T00:24:18.061Z,2.90
2023-03-12T00:24:53.483Z,2.50
2023-03-12T00:25:28.922Z,2.60
2023-03-12T00:26:04.762Z,2.60
2023-03-12T00:26:38.306Z,2.70
2023-03-12T00:27:11.675Z,2.60
2023-03-12T00:27:45.144Z,2.70
2023-03-12T00:28:18.552Z,2.70
2023-03-12T00:28:52.876Z,2.60
2023-03-12T00:29:26.410Z,2.70
2023-03-12T00:29:59.807Z,2.70
2023-03-12T00:30:33.286Z,2.70
2023-03-12T00:31:29.942Z,2.60
2023-03-12T00:32:03.348Z,2.80
2023-03-12T00:32:38.307Z,2.80
2023-03-12T00:33:12.963Z,2.80
2023-03-12T00:33:49.535Z,2.80
2023-03-12T00:34:22.927Z,2.60
2023-03-12T00:34:56.710Z,2.70
2023-03-12T00:35:30.050Z,2.60
2023-03-12T00:36:03.570Z,2.70
2023-03-12T00:36:37.347Z,2.50
2023-03-12T00:37:10.851Z,3.00
2023-03-12T00:37:47.857Z,2.50
2023-03-12T00:38:21.985Z,2.30
2023-03-12T00:38:56.503Z,2.70
2023-03-12T00:39:29.940Z,2.70
2023-03-12T00:40:08.900Z,2.80
2023-03-12T00:40:42.222Z,2.60
2023-03-12T00:41:15.664Z,2.80
2023-03-12T00:41:49.136Z,2.50
2023-03-12T00:42:22.614Z,2.60
2023-03-12T00:42:55.983Z,2.60
2023-03-12T00:43:29.316Z,2.40
2023-03-12T00:44:02.843Z,2.50
2023-03-12T00:44:36.624Z,3.10
2023-03-12T00:45:10.774Z,2.30
2023-03-12T00:45:45.575Z,2.80
2023-03-12T00:46:19.975Z,2.80
2023-03-12T00:46:53.437Z,2.70
2023-03-12T00:47:26.962Z,2.60
2023-03-12T00:48:00.550Z,2.60
2023-03-12T00:48:34.028Z,2.70
2023-03-12T00:49:07.572Z,3.10
2023-03-12T00:49:41.450Z,2.80
2023-03-12T00:50:14.928Z,2.80
2023-03-12T00:50:48.421Z,2.80
2023-03-12T00:51:23.182Z,2.70
2023-03-12T00:51:56.633Z,3.20
2023-03-12T00:52:30.012Z,3.10
2023-03-12T00:53:03.594Z,3.10
2023-03-12T00:53:37.354Z,2.90
2023-03-12T00:54:10.813Z,3.30
2023-03-12T00:54:44.201Z,3.30
2023-03-12T00:55:17.663Z,3.10
2023-03-12T00:55:51.253Z,3.20
2023-03-12T00:56:24.706Z,3.10
2023-03-12T00:57:00.197Z,2.90
2023-03-12T00:57:33.729Z,3.20
2023-03-12T00:58:07.151Z,3.00
2023-03-12T00:58:42.957Z,2.80
2023-03-12T00:59:16.677Z,3.20
2023-03-12T00:59:50.027Z,2.90
2023-03-12T01:00:23.598Z,3.10
2023-03-12T01:00:56.928Z,3.00
2023-03-12T01:01:30.424Z,3.10
2023-03-12T01:02:03.962Z,3.10
2023-03-12T01:02:39.446Z,2.80
2023-03-12T01:03:13.156Z,3.00
2023-03-12T01:03:47.573Z,3.10
2023-03-12T01:04:21.068Z,2.90
2023-03-12T01:04:54.478Z,3.30
2023-03-12T01:05:27.978Z,3.20
2023-03-12T01:06:01.388Z,3.20
2023-03-12T01:06:35.278Z,3.00
2023-03-12T01:07:08.746Z,3.30
2023-03-12T01:07:42.556Z,3.10
2023-03-12T01:08:15.999Z,3.40
2023-03-12T01:08:51.704Z,3.10
2023-03-12T01:09:27.652Z,3.10
2023-03-12T01:10:06.927Z,3.00
2023-03-12T01:10:43.658Z,3.20
2023-03-12T01:11:20.366Z,3.60
2023-03-12T01:11:53.712Z,3.30
2023-03-12T01:12:27.108Z,3.30
2023-03-12T01:13:00.596Z,3.50
2023-03-12T01:13:34.534Z,3.20
2023-03-12T01:14:09.564Z,3.30
2023-03-12T01:14:42.895Z,3.20
2023-03-12T01:15:18.683Z,3.40
2023-03-12T01:15:52.084Z,3.60
2023-03-12T01:16:28.513Z,3.30
2023-03-12T01:17:01.963Z,3.00
2023-03-12T01:17:35.458Z,3.60
2023-03-12T01:18:08.911Z,3.10
2023-03-12T01:18:42.491Z,3.50
2023-03-12T01:19:16.021Z,3.70
2023-03-12T01:19:49.469Z,3.60
2023-03-12T01:20:23.402Z,3.30
2023-03-12T01:20:57.279Z,3.20
2023-03-12T01:21:31.517Z,3.10
2023-03-12T01:22:05.070Z,3.00
2023-03-12T01:22:39.026Z,3.30
2023-03-12T01:23:15.604Z,3.10
2023-03-12T01:23:49.016Z,3.30
2023-03-12T01:24:22.435Z,3.60
2023-03-12T01:24:55.770Z,3.20
2023-03-12T01:25:29.114Z,2.80
2023-03-12T01:26:02.567Z,3.60
2023-03-12T01:26:36.216Z,3.00
2023-03-12T01:27:09.575Z,3.40
2023-03-12T01:27:43.186Z,3.20
2023-03-12T01:28:16.672Z,3.40
2023-03-12T01:28:50.729Z,2.90
2023-03-12T01:29:24.495Z,3.30
2023-03-12T01:29:59.194Z,3.00
2023-03-12T01:30:33.889Z,3.70
2023-03-12T01:31:12.801Z,3.80
2023-03-12T01:31:46.442Z,3.30
2023-03-12T01:32:20.433Z,3.20
2023-03-12T01:32:54.128Z,3.50
2023-03-12T01:33:27.442Z,3.40
2023-03-12T01:34:01.011Z,3.30
2023-03-12T01:34:35.801Z,3.00
2023-03-12T01:35:09.858Z,3.20
2023-03-12T01:35:43.500Z,3.00
2023-03-12T01:36:26.218Z,2.90
2023-03-12T01:36:59.726Z,2.60
2023-03-12T01:37:35.130Z,2.80
2023-03-12T01:38:13.723Z,3.00
2023-03-12T01:38:48.146Z,3.00
2023-03-12T01:39:21.456Z,2.80
2023-03-12T01:39:55.037Z,3.20
2023-03-12T01:40:29.479Z,3.10
2023-03-12T01:41:04.163Z,3.40
2023-03-12T01:41:38.145Z,3.20
2023-03-12T01:42:11.920Z,3.20
2023-03-12T01:42:56.592Z,3.50
2023-03-12T01:43:33.400Z,3.40
2023-03-12T01:44:08.250Z,3.20
2023-03-12T01:44:56.613Z,3.40
2023-03-12T01:46:07.404Z,3.40
2023-03-12T01:46:43.536Z,3.30
2023-03-12T01:47:20.465Z,3.30
2023-03-12T01:47:54.141Z,3.40
2023-03-12T01:48:37.762Z,3.20
2023-03-12T01:49:33.617Z,2.70
2023-03-12T01:50:08.355Z,2.90
2023-03-12T01:50:42.173Z,3.30
2023-03-12T01:51:18.033Z,3.20
2023-03-12T01:52:05.394Z,3.60
2023-03-12T01:52:59.794Z,3.30
2023-03-12T01:53:34.582Z,3.20
2023-03-12T01:54:15.915Z,3.10
2023-03-12T01:54:58.292Z,3.10
2023-03-12T01:55:32.514Z,3.10
2023-03-12T01:56:07.030Z,3.30
2023-03-12T01:56:41.811Z,3.20
2023-03-12T01:57:21.458Z,3.60
2023-03-12T01:57:58.358Z,3.60
2023-03-12T01:58:36.129Z,3.20
2023-03-12T01:59:18.068Z,3.40
2023-03-12T02:00:00.229Z,3.20
2023-03-12T02:00:33.908Z,3.20
2023-03-12T02:01:08.139Z,3.20
2023-03-12T02:01:43.127Z,3.00
2023-03-12T02:02:18.823Z,3.00
2023-03-12T02:02:56.563Z,3.00
2023-03-12T02:03:31.918Z,3.30
2023-03-12T02:04:06.192Z,3.30
2023-03-12T02:04:41.350Z,3.00
2023-03-12T02:06:14.878Z,2.70
2023-03-12T02:07:04.811Z,3.00
2023-03-12T02:07:38.298Z,3.50
2023-03-12T02:08:13.513Z,3.40
2023-03-12T02:08:48.156Z,3.40
2023-03-12T02:09:22.153Z,3.70
2023-03-12T02:09:56.041Z,3.40
2023-03-12T02:10:29.487Z,3.60
2023-03-12T02:11:02.952Z,3.60
2023-03-12T02:11:36.547Z,3.30
2023-03-12T02:12:10.425Z,3.60
2023-03-12T02:12:44.153Z,3.70
2023-03-12T02:13:18.583Z,3.80
2023-03-12T02:13:53.539Z,4.00
2023-03-12T02:14:27.342Z,4.00
2023-03-12T02:15:00.906Z,3.40
2023-03-12T02:15:36.798Z,3.90
2023-03-12T02:16:10.418Z,3.70
2023-03-12T02:16:44.745Z,3.70
2023-03-12T02:17:18.417Z,3.90
2023-03-12T02:17:52.287Z,4.00
2023-03-12T02:18:26.067Z,3.90
2023-03-12T02:19:01.923Z,4.20
2023-03-12T02:19:51.916Z,4.10
2023-03-12T02:20:35.192Z,3.70
2023-03-12T02:21:20.648Z,3.70
2023-03-12T02:22:00.753Z,3.80
2023-03-12T02:22:40.539Z,3.50
2023-03-12T02:23:27.330Z,3.30
2023-03-12T02:24:31.289Z,3.90
2023-03-12T02:25:13.920Z,3.30
2023-03-12T02:25:51.356Z,3.40
2023-03-12T02:26:26.050Z,3.60
2023-03-12T02:27:01.100Z,3.60
2023-03-12T02:27:37.069Z,3.50
2023-03-12T02:28:15.602Z,3.30
2023-03-12T02:28:50.892Z,3.40
2023-03-12T02:29:25.934Z,3.30
2023-03-12T02:30:01.640Z,4.00
2023-03-12T02:30:37.337Z,3.70
2023-03-12T02:31:15.654Z,4.10
2023-03-12T02:31:53.765Z,3.60
2023-03-12T02:32:31.056Z,4.00
2023-03-12T02:33:08.027Z,3.60
2023-03-12T02:33:41.978Z,3.80
2023-03-12T02:34:15.454Z,3.90
2023-03-12T02:34:50.884Z,3.60
2023-03-12T02:35:24.378Z,3.60
2023-03-12T02:35:57.944Z,3.90
2023-03-12T02:36:31.567Z,3.90
2023-03-12T02:37:05.013Z,4.10
2023-03-12T02:37:51.116Z,3.90
2023-03-12T02:38:35.834Z,3.70
2023-03-12T02:39:13.071Z,3.80
2023-03-12T02:39:55.187Z,3.80
2023-03-12T02:40:31.579Z,3.90
2023-03-12T02:41:34.254Z,3.40
2023-03-12T02:42:09.028Z,3.70
2023-03-12T02:42:42.733Z,3.60
2023-03-12T02:43:18.932Z,4.20
2023-03-12T02:44:03.875Z,3.80
2023-03-12T02:44:38.109Z,3.60
2023-03-12T02:45:11.933Z,3.50
2023-03-12T02:45:45.271Z,3.50
2023-03-12T02:46:19.077Z,3.40
2023-03-12T02:46:57.680Z,3.70
2023-03-12T02:47:31.204Z,3.70
2023-03-12T02:48:08.904Z,3.40
2023-03-12T02:48:42.631Z,3.40
2023-03-12T02:51:17.106Z,3.40
2023-03-12T02:51:51.005Z,3.40
2023-03-12T02:52:24.535Z,3.80
2023-03-12T02:52:58.061Z,3.70
2023-03-12T02:53:31.730Z,3.80
2023-03-12T02:54:05.445Z,3.70
2023-03-12T02:54:38.896Z,3.70
2023-03-12T02:55:12.702Z,3.50
2023-03-12T02:55:46.139Z,3.50
2023-03-12T02:56:19.674Z,3.70
2023-03-12T02:56:53.880Z,3.90
2023-03-12T02:57:27.272Z,3.90
2023-03-12T02:58:00.898Z,3.50
2023-03-12T02:58:36.569Z,4.10
2023-03-12T02:59:10.897Z,3.20
2023-03-12T02:59:46.471Z,3.40
2023-03-12T03:00:20.924Z,3.60
2023-03-12T03:00:56.563Z,4.20
2023-03-12T03:01:30.185Z,3.60
2023-03-12T03:02:04.776Z,3.70
2023-03-12T03:02:39.112Z,3.50
2023-03-12T03:03:12.582Z,4.10
2023-03-12T03:03:46.704Z,3.60
2023-03-12T03:04:20.237Z,3.80
2023-03-12T03:04:54.091Z,3.70
2023-03-12T03:05:28.046Z,3.50
2023-03-12T03:06:01.613Z,3.50
2023-03-12T03:06:37.439Z,3.80
2023-03-12T03:07:10.842Z,3.50
2023-03-12T03:07:44.431Z,3.60
2023-03-12T03:08:17.982Z,3.60
2023-03-12T03:08:51.465Z,3.40
2023-03-12T03:09:25.461Z,3.50
2023-03-12T03:10:04.408Z,3.30
2023-03-12T03:10:37.977Z,3.50
2023-03-12T03:11:11.695Z,3.40
2023-03-12T03:12:00.232Z,3.80
2023-03-12T03:12:41.384Z,3.50
2023-03-12T03:13:14.914Z,3.90
2023-03-12T03:13:48.179Z,3.60
2023-03-12T03:16:00.043Z,3.30
2023-03-12T03:16:12.013Z,3.70
2023-03-12T03:16:34.180Z,3.50
2023-03-12T03:17:08.193Z,3.30
2023-03-12T03:17:41.633Z,3.00
2023-03-12T03:18:15.119Z,3.50
2023-03-12T03:18:48.785Z,3.30
2023-03-12T03:19:22.181Z,3.70
2023-03-12T03:19:55.750Z,3.70
2023-03-12T03:20:29.152Z,4.50
2023-03-12T03:22:04.603Z,3.50
2023-03-12T03:22:38.990Z,3.50
2023-03-12T03:23:12.390Z,4.10
2023-03-12T03:23:48.510Z,3.30
2023-03-12T03:24:21.932Z,3.70
2023-03-12T03:25:13.452Z,3.30
2023-03-12T03:26:03.516Z,3.30
2023-03-12T03:26:37.007Z,3.40
2023-03-12T03:27:10.422Z,3.70
2023-03-12T03:27:43.919Z,3.40
2023-03-12T03:28:17.266Z,3.50
2023-03-12T03:28:51.234Z,3.60
2023-03-12T03:29:25.036Z,3.70
2023-03-12T03:29:58.323Z,3.50
2023-03-12T03:30:36.979Z,3.60
2023-03-12T03:31:54.025Z,3.70
2023-03-12T03:32:29.188Z,3.70
2023-03-12T03:33:09.453Z,3.50
2023-03-12T03:33:42.893Z,3.70
2023-03-12T03:34:16.582Z,3.50
2023-03-12T03:34:57.134Z,3.30
2023-03-12T03:35:52.343Z,3.40
2023-03-12T03:36:25.894Z,3.10
2023-03-12T03:37:34.229Z,3.50
2023-03-12T03:38:10.614Z,3.40
2023-03-12T03:54:57.177Z,3.40
2023-03-12T03:55:30.726Z,3.10
2023-03-12T03:56:09.568Z,3.60
2023-03-12T03:56:47.345Z,3.50
2023-03-12T03:57:27.762Z,3.80
2023-03-12T03:58:01.467Z,3.70
2023-03-12T03:58:35.429Z,3.30
2023-03-12T03:59:08.965Z,3.50
2023-03-12T03:59:44.080Z,3.70
2023-03-12T04:00:18.520Z,3.60
2023-03-12T04:00:52.344Z,3.00
2023-03-12T04:01:25.875Z,3.60
2023-03-12T04:01:59.733Z,3.40
2023-03-12T04:02:36.082Z,3.80
2023-03-12T04:03:09.589Z,3.30
2023-03-12T04:03:43.208Z,3.20
2023-03-12T04:04:16.882Z,3.40
2023-03-12T04:04:50.710Z,3.50
2023-03-12T04:05:25.550Z,3.40
2023-03-12T04:06:01.801Z,3.30
2023-03-12T04:06:35.687Z,3.30
2023-03-12T04:07:09.217Z,3.40
2023-03-12T04:07:44.837Z,3.30
2023-03-12T04:08:18.612Z,3.50
2023-03-12T04:08:52.508Z,3.50
2023-03-12T04:09:26.944Z,3.50
2023-03-12T04:10:00.426Z,3.80
2023-03-12T04:10:34.205Z,3.40
2023-03-12T04:11:13.234Z,3.70
2023-03-12T04:11:46.986Z,3.50
2023-03-12T04:12:21.701Z,3.40
2023-03-12T04:12:55.673Z,3.50
2023-03-12T04:13:29.224Z,3.20
2023-03-12T04:14:02.852Z,3.70
2023-03-12T04:14:41.143Z,3.60
2023-03-12T04:15:15.070Z,3.20
2023-03-12T04:15:53.924Z,3.30
2023-03-12T04:16:30.180Z,3.30
2023-03-12T04:17:03.863Z,3.30
2023-03-12T04:17:37.382Z,3.50
2023-03-12T04:18:10.893Z,3.20
2023-03-12T04:18:45.500Z,3.60
2023-03-12T04:19:19.547Z,3.50
2023-03-12T04:19:53.158Z,3.40
2023-03-12T04:20:26.929Z,3.20
2023-03-12T04:21:00.332Z,3.40
2023-03-12T04:21:34.267Z,3.60
2023-03-12T04:22:07.789Z,3.50
2023-03-12T04:22:41.599Z,3.60
2023-03-12T04:23:15.289Z,3.60
2023-03-12T04:23:48.868Z,3.70
2023-03-12T04:24:22.357Z,3.40
2023-03-12T04:24:56.090Z,3.40
2023-03-12T04:25:31.353Z,3.30
2023-03-12T04:26:06.370Z,3.50
2023-03-12T04:26:41.394Z,3.50
2023-03-12T04:27:14.943Z,3.80
2023-03-12T04:27:48.363Z,3.50
2023-03-12T04:28:21.833Z,3.50
2023-03-12T04:28:55.493Z,3.60
2023-03-12T04:29:29.015Z,3.30
2023-03-12T04:30:02.717Z,3.70
2023-03-12T04:30:38.442Z,3.60
2023-03-12T04:31:13.019Z,3.30
2023-03-12T04:31:49.978Z,3.50
2023-03-12T04:32:23.383Z,3.60
2023-03-12T04:32:58.587Z,3.50
2023-03-12T04:33:35.707Z,3.20
2023-03-12T04:34:11.458Z,3.40
2023-03-12T04:34:47.015Z,3.30
2023-03-12T04:35:21.389Z,3.50
2023-03-12T04:35:55.493Z,3.40
2023-03-12T04:36:29.424Z,3.40
2023-03-12T04:37:03.396Z,3.40
2023-03-12T04:37:37.091Z,3.60
2023-03-12T04:38:10.859Z,3.80
2023-03-12T04:38:46.540Z,3.70
2023-03-12T04:39:21.535Z,3.70
2023-03-12T04:39:56.270Z,3.30
2023-03-12T04:40:29.716Z,3.40
2023-03-12T04:41:07.982Z,3.40
2023-03-12T04:41:42.335Z,3.50
2023-03-12T04:42:20.661Z,3.50
2023-03-12T04:42:54.503Z,3.40
2023-03-12T04:43:29.026Z,3.40
2023-03-12T04:44:03.489Z,3.40
2023-03-12T04:44:37.584Z,3.60
2023-03-12T04:45:12.489Z,3.30
2023-03-12T04:45:48.063Z,3.50
2023-03-12T04:46:21.799Z,3.50
2023-03-12T04:46:58.293Z,3.40
2023-03-12T04:47:33.105Z,3.40
2023-03-12T04:48:06.794Z,3.40
2023-03-12T04:48:40.386Z,3.50
2023-03-12T04:49:13.784Z,3.50
2023-03-12T04:49:47.518Z,3.60
2023-03-12T04:50:21.127Z,3.70
2023-03-12T04:50:55.427Z,3.50
2023-03-12T04:51:30.183Z,3.10
2023-03-12T04:52:03.829Z,3.50
2023-03-12T04:52:37.723Z,3.20
2023-03-12T04:53:11.862Z,3.60
2023-03-12T04:53:45.513Z,3.60
2023-03-12T04:54:21.344Z,3.00
2023-03-12T04:54:55.125Z,3.30
2023-03-12T04:55:28.550Z,3.30
2023-03-12T04:56:01.911Z,3.50
2023-03-12T04:56:35.920Z,3.40
2023-03-12T04:57:09.506Z,3.30
2023-03-12T04:57:43.188Z,3.50
2023-03-12T04:58:17.211Z,3.20
2023-03-12T04:58:52.850Z,3.40
2023-03-12T04:59:26.302Z,3.10
2023-03-12T04:59:59.966Z,3.70
2023-03-12T05:00:33.550Z,3.40
2023-03-12T05:01:07.020Z,3.30
2023-03-12T05:01:40.729Z,3.70
2023-03-12T05:02:20.081Z,3.70
2023-03-12T05:02:55.018Z,3.80
2023-03-12T05:03:31.754Z,3.30
2023-03-12T05:04:06.568Z,3.10
2023-03-12T05:04:40.178Z,3.30
2023-03-12T05:05:14.457Z,3.50
2023-03-12T05:05:48.467Z,3.50
2023-03-12T05:06:23.923Z,3.40
2023-03-12T05:06:57.398Z,3.40
2023-03-12T05:07:30.960Z,3.60
2023-03-12T05:08:05.580Z,3.30
2023-03-12T05:08:39.204Z,3.50
2023-03-12T05:09:12.830Z,3.30
2023-03-12T05:09:46.564Z,3.40
2023-03-12T05:10:20.425Z,3.60
2023-03-12T05:10:54.210Z,3.30
2023-03-12T05:11:27.963Z,3.20
2023-03-12T05:12:01.519Z,3.00
2023-03-12T05:12:35.150Z,3.30
2023-03-12T05:13:23.021Z,3.30
2023-03-12T05:13:58.604Z,3.50
2023-03-12T05:14:32.118Z,3.60
2023-03-12T05:15:06.145Z,3.60
2023-03-12T05:15:39.809Z,3.60
2023-03-12T05:16:15.141Z,3.10
2023-03-12T05:16:48.631Z,3.50
2023-03-12T05:17:22.299Z,3.40
2023-03-12T05:17:55.954Z,3.40
2023-03-12T05:18:29.479Z,3.40
2023-03-12T05:19:04.584Z,3.60
2023-03-12T05:19:41.943Z,3.20
2023-03-12T05:20:15.753Z,3.10
2023-03-12T05:21:16.775Z,3.90
2023-03-12T05:21:53.267Z,3.40
2023-03-12T05:22:26.925Z,3.40
2023-03-12T05:23:00.476Z,3.10
2023-03-12T05:23:35.497Z,3.00
2023-03-12T05:24:10.207Z,3.00
2023-03-12T05:24:43.896Z,3.40
2023-03-12T05:25:17.467Z,3.30
2023-03-12T05:25:53.641Z,3.10
2023-03-12T05:26:31.718Z,3.30
2023-03-12T05:27:16.065Z,3.10
2023-03-12T05:27:51.491Z,3.20
2023-03-12T05:28:28.612Z,3.40
2023-03-12T05:29:05.838Z,3.40
2023-03-12T05:29:40.779Z,3.20
2023-03-12T05:30:14.497Z,3.40
2023-03-12T05:30:48.106Z,3.10
2023-03-12T05:31:21.898Z,3.40
2023-03-12T05:31:55.633Z,3.30
2023-03-12T05:32:29.413Z,3.40
2023-03-12T05:33:03.259Z,3.30
2023-03-12T05:33:38.698Z,3.50
2023-03-12T05:34:13.906Z,3.70
2023-03-12T05:34:49.154Z,3.40
2023-03-12T05:35:23.051Z,3.40
2023-03-12T05:35:57.428Z,3.30
2023-03-12T05:36:31.139Z,3.30
2023-03-12T05:37:04.595Z,3.60
2023-03-12T05:37:38.615Z,3.10
2023-03-12T05:38:12.119Z,3.30
2023-03-12T05:38:48.141Z,3.50
2023-03-12T05:39:22.703Z,3.50
2023-03-12T05:39:58.695Z,3.60
2023-03-12T05:40:34.482Z,3.60
2023-03-12T05:41:08.026Z,3.70
2023-03-12T05:41:42.166Z,3.60
2023-03-12T05:42:25.330Z,3.50
2023-03-12T05:42:59.143Z,3.60
2023-03-12T05:43:33.158Z,3.50
2023-03-12T05:44:07.151Z,3.70
2023-03-12T05:44:42.684Z,3.40
2023-03-12T05:45:19.921Z,3.50
2023-03-12T05:46:00.393Z,3.60
2023-03-12T05:46:34.467Z,3.50
2023-03-12T05:47:08.449Z,3.70
2023-03-12T05:47:41.927Z,3.20
2023-03-12T05:48:15.976Z,3.40
2023-03-12T05:48:49.524Z,3.30
2023-03-12T05:49:25.881Z,3.70
2023-03-12T05:49:59.736Z,3.70
2023-03-12T05:50:33.455Z,3.40
2023-03-12T05:51:06.877Z,3.70
2023-03-12T05:51:40.409Z,3.60
2023-03-12T05:52:14.330Z,3.50
2023-03-12T05:52:49.533Z,3.90
2023-03-12T05:53:23.230Z,3.50
2023-03-12T05:53:57.559Z,3.80
2023-03-12T05:54:30.981Z,3.70
2023-03-12T05:55:04.984Z,3.30
2023-03-12T05:55:40.369Z,3.60
2023-03-12T05:56:16.814Z,3.90
2023-03-12T05:56:50.592Z,3.70
2023-03-12T05:57:24.229Z,3.40
2023-03-12T05:57:57.773Z,3.40
2023-03-12T05:58:32.453Z,3.80
2023-03-12T05:59:06.363Z,3.60
2023-03-12T05:59:39.977Z,3.90
2023-03-12T06:00:17.010Z,3.30
2023-03-12T06:00:55.315Z,4.10
2023-03-12T06:01:30.586Z,3.80
2023-03-12T06:02:05.516Z,3.90
2023-03-12T06:02:39.823Z,3.40
2023-03-12T06:03:13.964Z,3.70
2023-03-12T06:03:48.411Z,3.60
2023-03-12T06:04:21.909Z,3.30
2023-03-12T06:04:55.510Z,3.70
2023-03-12T06:05:28.905Z,3.60
2023-03-12T06:06:02.405Z,4.10
2023-03-12T06:06:37.488Z,3.70
2023-03-12T06:07:11.142Z,3.50
2023-03-12T06:07:44.645Z,3.70
2023-03-12T06:08:18.206Z,3.80
2023-03-12T06:08:52.384Z,3.80
2023-03-12T06:09:25.914Z,4.10
2023-03-12T06:10:00.243Z,3.80
2023-03-12T06:10:34.800Z,3.60
2023-03-12T06:11:09.187Z,3.30
2023-03-12T06:11:42.712Z,3.60
2023-03-12T06:12:16.194Z,3.90
2023-03-12T06:12:49.631Z,4.00
2023-03-12T06:13:23.532Z,3.60
2023-03-12T06:13:57.489Z,3.80
2023-03-12T06:14:31.585Z,4.10
2023-03-12T06:15:06.833Z,3.80
2023-03-12T06:15:40.417Z,3.80
2023-03-12T06:16:21.188Z,3.80
2023-03-12T06:16:55.034Z,4.00
2023-03-12T06:17:32.687Z,3.60
2023-03-12T06:18:06.220Z,3.60
2023-03-12T06:18:40.550Z,3.70
2023-03-12T06:19:14.690Z,3.80
2023-03-12T06:19:53.124Z,3.80
2023-03-12T06:20:27.426Z,3.40
2023-03-12T06:21:14.743Z,3.60
2023-03-12T06:21:48.458Z,3.40
2023-03-12T06:22:22.328Z,3.60
2023-03-12T06:22:56.584Z,3.50
2023-03-12T06:23:29.998Z,3.70
2023-03-12T06:24:03.766Z,3.60
2023-03-12T06:24:47.459Z,3.50
2023-03-12T06:25:22.669Z,3.50
2023-03-12T06:25:56.176Z,3.50
2023-03-12T06:26:29.730Z,3.70
2023-03-12T06:27:03.383Z,3.50
2023-03-12T06:27:37.003Z,3.40
2023-03-12T06:28:10.518Z,3.70
2023-03-12T06:28:45.653Z,3.60
2023-03-12T06:29:19.050Z,3.40
2023-03-12T06:29:52.617Z,3.60
2023-03-12T06:30:27.669Z,3.70
2023-03-12T06:31:01.942Z,3.70
2023-03-12T06:31:38.596Z,3.40
2023-03-12T06:32:12.208Z,3.20
2023-03-12T06:32:46.012Z,3.60
2023-03-12T06:33:19.669Z,3.50
2023-03-12T06:33:54.264Z,3.50
2023-03-12T06:34:27.999Z,3.90
2023-03-12T06:35:02.823Z,3.50
2023-03-12T06:35:36.752Z,3.80
2023-03-12T06:36:11.529Z,3.80
2023-03-12T06:36:45.181Z,4.10
2023-03-12T06:37:18.719Z,4.10
2023-03-12T06:37:52.173Z,3.60
2023-03-12T06:38:26.192Z,4.00
2023-03-12T06:38:59.676Z,3.50
2023-03-12T06:39:33.367Z,3.70
2023-03-12T06:40:10.202Z,4.40
2023-03-12T06:40:43.686Z,4.10
2023-03-12T06:41:20.653Z,4.30
2023-03-12T06:41:54.165Z,4.40
2023-03-12T06:42:28.292Z,4.80
2023-03-12T06:43:01.978Z,5.50
2023-03-12T06:43:37.362Z,4.70
2023-03-12T06:44:10.929Z,5.90
2023-03-12T06:44:44.369Z,5.90
2023-03-12T06:45:18.114Z,6.00
2023-03-12T06:45:52.096Z,5.50
2023-03-12T06:46:25.930Z,5.90
2023-03-12T06:46:59.883Z,6.20
2023-03-12T06:47:33.365Z,5.60
2023-03-12T06:48:06.815Z,5.20
2023-03-12T06:48:41.682Z,4.60
2023-03-12T06:49:15.648Z,4.70
2023-03-12T06:49:49.176Z,4.50
2023-03-12T06:50:22.687Z,4.60
2023-03-12T06:50:56.554Z,4.80
2023-03-12T06:51:30.268Z,4.30
2023-03-12T06:52:04.905Z,4.60
2023-03-12T06:52:38.433Z,4.20
2023-03-12T06:53:12.144Z,4.50
2023-03-12T06:53:46.256Z,4.50
2023-03-12T06:54:20.082Z,5.20
2023-03-12T06:54:54.190Z,4.60
2023-03-12T06:55:28.219Z,4.60
2023-03-12T06:56:02.249Z,3.90
2023-03-12T06:56:35.992Z,4.20
2023-03-12T06:57:09.447Z,4.30
2023-03-12T06:57:43.061Z,4.30
2023-03-12T06:58:16.866Z,4.20
2023-03-12T06:58:50.665Z,3.70
2023-03-12T06:59:24.428Z,4.10
2023-03-12T06:59:58.172Z,4.00
2023-03-12T07:00:33.235Z,4.20
2023-03-12T07:01:07.594Z,3.60
2023-03-12T07:01:41.413Z,3.90
2023-03-12T07:02:15.038Z,3.70
2023-03-12T07:02:48.932Z,3.60
2023-03-12T07:03:23.122Z,3.80
2023-03-12T07:03:59.514Z,3.70
2023-03-12T07:04:33.349Z,3.80
2023-03-12T07:05:07.938Z,3.40
2023-03-12T07:05:46.018Z,3.40
2023-03-12T07:06:22.516Z,3.90
2023-03-12T07:06:55.944Z,3.60
2023-03-12T07:07:29.707Z,3.50
2023-03-12T07:08:03.701Z,3.10
2023-03-12T07:08:40.868Z,3.70
2023-03-12T07:09:14.428Z,3.60
2023-03-12T07:09:48.281Z,3.30
2023-03-12T07:10:22.258Z,3.70
2023-03-12T07:10:56.106Z,3.40
2023-03-12T07:11:29.934Z,4.60
2023-03-12T07:12:04.416Z,3.80
2023-03-12T07:12:38.257Z,4.10
2023-03-12T07:13:13.475Z,4.10
2023-03-12T07:13:47.274Z,4.10
2023-03-12T07:14:21.550Z,4.00
2023-03-12T07:14:55.216Z,4.30
2023-03-12T07:15:29.002Z,3.90
2023-03-12T07:16:03.506Z,3.80
2023-03-12T07:16:37.422Z,3.80
2023-03-12T07:17:10.985Z,3.60
2023-03-12T07:17:44.809Z,3.50
2023-03-12T07:18:18.624Z,3.70
2023-03-12T07:18:52.535Z,3.70
2023-03-12T07:19:26.592Z,3.80
2023-03-12T07:20:00.465Z,3.70
2023-03-12T07:20:38.159Z,3.60
2023-03-12T07:21:11.941Z,3.40
2023-03-12T07:21:45.631Z,3.50
2023-03-12T07:22:19.787Z,3.20
2023-03-12T07:22:53.434Z,2.90
2023-03-12T07:23:27.157Z,3.30
2023-03-12T07:24:01.140Z,3.20
2023-03-12T07:24:35.235Z,3.20
2023-03-12T07:25:10.227Z,3.30
2023-03-12T07:25:44.863Z,3.40
2023-03-12T07:26:19.183Z,3.20
2023-03-12T07:26:52.828Z,3.10
2023-03-12T07:27:26.505Z,3.10
2023-03-12T07:28:00.187Z,3.20
2023-03-12T07:28:34.192Z,3.10
2023-03-12T07:29:07.853Z,3.50
2023-03-12T07:29:41.712Z,3.40
2023-03-12T07:30:15.684Z,3.50
2023-03-12T07:30:50.894Z,3.20
2023-03-12T07:32:00.532Z,3.10
2023-03-12T07:32:36.566Z,3.10
2023-03-12T07:33:15.295Z,3.20
2023-03-12T07:33:51.724Z,3.20
2023-03-12T07:34:25.643Z,3.50
2023-03-12T07:34:59.537Z,3.10
2023-03-12T07:35:34.128Z,3.20
2023-03-12T07:36:09.272Z,3.20
2023-03-12T07:36:43.528Z,3.10
2023-03-12T07:37:17.218Z,3.10
2023-03-12T07:37:50.851Z,3.20
2023-03-12T07:38:25.046Z,2.90
2023-03-12T07:38:58.759Z,3.20
2023-03-12T07:39:32.685Z,3.10
2023-03-12T07:40:10.755Z,3.00
2023-03-12T07:40:44.821Z,2.80
2023-03-12T07:41:18.584Z,3.10
2023-03-12T07:41:52.410Z,3.20
2023-03-12T07:42:26.606Z,2.90
2023-03-12T07:43:04.552Z,3.10
2023-03-12T07:43:39.574Z,3.10
2023-03-12T07:44:13.632Z,3.30
2023-03-12T07:44:47.540Z,2.90
2023-03-12T07:45:21.940Z,3.20
2023-03-12T07:45:56.428Z,2.90
2023-03-12T07:46:30.909Z,3.40
2023-03-12T07:47:22.288Z,3.10
2023-03-12T07:47:57.312Z,3.30
2023-03-12T07:48:31.155Z,2.90
2023-03-12T07:49:05.083Z,2.90
2023-03-12T07:49:42.305Z,3.00
2023-03-12T07:50:16.767Z,2.90
2023-03-12T07:50:50.844Z,3.10
2023-03-12T07:51:24.654Z,2.80
2023-03-12T07:51:59.647Z,2.80
2023-03-12T07:52:33.593Z,3.00
2023-03-12T07:53:07.348Z,3.10
2023-03-12T07:53:41.141Z,3.30
2023-03-12T07:54:15.055Z,3.30
2023-03-12T07:54:49.184Z,3.00
2023-03-12T07:55:23.201Z,2.90
2023-03-12T07:55:57.009Z,2.90
2023-03-12T07:56:31.133Z,2.90
2023-03-12T07:57:05.916Z,3.20
2023-03-12T07:57:40.284Z,3.20
2023-03-12T07:58:16.022Z,2.70
2023-03-12T07:58:49.935Z,2.80
2023-03-12T07:59:25.274Z,3.10
2023-03-12T07:59:59.139Z,3.00
2023-03-12T08:00:33.237Z,2.80
2023-03-12T08:01:09.415Z,2.90
2023-03-12T08:01:45.397Z,3.10
2023-03-12T08:02:20.755Z,2.80
2023-03-12T08:02:55.055Z,2.90
2023-03-12T08:03:29.375Z,3.00
2023-03-12T08:04:04.645Z,2.90
2023-03-12T08:04:38.642Z,3.00
2023-03-12T08:05:12.680Z,2.80
2023-03-12T08:05:55.410Z,2.80
2023-03-12T08:06:29.945Z,3.00
2023-03-12T08:07:05.840Z,2.90
2023-03-12T08:07:41.034Z,2.70
2023-03-12T08:08:15.073Z,3.00
2023-03-12T08:08:49.117Z,2.90
2023-03-12T08:09:23.031Z,2.80
2023-03-12T08:09:56.633Z,2.90
2023-03-12T08:10:30.757Z,2.70
2023-03-12T08:11:05.683Z,2.80